Hanna, Oklahoma
Current Conditions -  °F | °C
As of 5:20 PM on Friday 19 Dec 2014 (Local Time) from KMLC Reporting Station
Haze Haze  
Wind Chill: 37°   Ceiling: 300
Heat Index: 42°   Visibility: 0.75mi
Dew Point: 41°   Wind: 9mph
Humidity: 96%   Direction: 350°N
Pressure: 30.2"   Gusts: NA
Location:  35.21°N, 95.89°W
Report Text: KMLC 192320Z AUTO 35008KT 3/4SM BR VV003 06/05 A3020 RMK AO2 T00560050
Loading
Personal Weather Stations






























Interactive Weather Map New forecast layout! Learn more

10-Day Weather Forecast

Advertisements
Track Severe Weather on mobile